Arian — V2FM3 — position and weather

sailwx.info

Track history (hours):
 
Tides and Currents Weather Stations Pressure Air Temp Water Temp Dewpoint Dewpoint Depression Visibility Wind Speed Wind Dir Waves Ship Positions

Arian

Last reported at 2018-Jun-08 01:05 UTC. Time now 2018-Jun-19 20:09 UTC.
Position N 14°33' W 061°35'.
Warning: this ship's position is 11 days out of date.

Length 161 m; draft 8.1 m.

Type: Ship (hazmat cat A). MMSI: 305720000.

Date/timePositionNaut miles runAvg speedWind from/ knotsBaromVisibWave heightAir tempDewpointWater temp
2018-Jun-08 01:05N 14°33' W 061°35'117.4
2018-Jun-08 01:01N 14°32' W 061°34'3216.9
2018-Jun-07 23:08N 14°14' W 061°07'216.0
2018-Jun-07 23:00N 14°13' W 061°05'816.7
2018-Jun-07 22:30N 14°09' W 060°57'14 0.6
2018-Jun-06 21:40N 14°04' W 060°43'313.8
2018-Jun-06 21:26N 14°06' W 060°46'613.8
2018-Jun-06 21:00N 14°10' W 060°50'713.5
2018-Jun-06 20:30N 14°15' W 060°55'713.6
2018-Jun-06 20:00N 14°20' W 060°60'714.1
2018-Jun-06 19:30N 14°25' W 061°05'713.2
2018-Jun-06 18:58N 14°32' W 061°07'510.1
2018-Jun-06 18:31N 14°35' W 061°04'1 1.2
2018-Jun-06 17:58N 14°35' W 061°03'0 0.0
2018-Jun-06 17:28N 14°35' W 061°03'0 0.0
2018-Jun-06 16:58N 14°35' W 061°03'0 0.0
2018-Jun-06 16:28N 14°35' W 061°03'0 0.0
2018-Jun-06 15:58N 14°35' W 061°03'0 0.0
2018-Jun-06 15:28N 14°35' W 061°03'0 0.0
2018-Jun-06 14:58N 14°35' W 061°03'0 0.0
2018-Jun-06 14:28N 14°35' W 061°03'0 0.0
2018-Jun-06 13:55N 14°35' W 061°03'0 0.0
2018-Jun-06 13:28N 14°35' W 061°03'0 0.0
2018-Jun-06 12:58N 14°35' W 061°03'0 0.0
2018-Jun-06 12:28N 14°35' W 061°03'0 0.0
2018-Jun-06 11:58N 14°35' W 061°03'0 0.0
2018-Jun-06 11:28N 14°35' W 061°03'0 0.0
2018-Jun-06 10:58N 14°35' W 061°03'0 0.6
2018-Jun-06 10:30N 14°35' W 061°03'3 5.2
2018-Jun-06 10:00N 14°35' W 061°06'2 1.8
2018-Jun-06 08:55N 14°34' W 061°07'0 0.6
2018-Jun-06 08:30N 14°34' W 061°07'3 5.0
2018-Jun-06 07:59N 14°31' W 061°07'3 6.6
2018-Jun-06 07:30N 14°28' W 061°07'4 7.1
2018-Jun-06 07:00N 14°25' W 061°06'4 7.2
2018-Jun-06 06:30N 14°21' W 061°05'3 6.9
2018-Jun-06 06:00N 14°18' W 061°05'3 6.8
2018-Jun-06 05:30N 14°14' W 061°04'3 6.8
2018-Jun-06 05:01N 14°11' W 061°03'3 6.8
2018-Jun-06 04:30N 14°08' W 061°02'3 6.6
2018-Jun-06 04:00N 14°05' W 061°01'4 5.5
2018-Jun-06 03:13N 14°01' W 060°60'0 0.0
2018-Jun-05 10:44N 14°01' W 060°60'  
Track history (hours):
 
Tides and Currents Weather Stations Pressure Air Temp Water Temp Dewpoint Dewpoint Depression Visibility Wind Speed Wind Dir Waves Ship Positions

Arian

Last reported at 2018-Jun-08 01:05 UTC. Time now 2018-Jun-19 20:09 UTC.
Position N 14°33' W 061°35'.
Warning: this ship's position is 11 days out of date.

Length 161 m; draft 8.1 m.

Type: Ship (hazmat cat A). MMSI: 305720000.

Date/timePositionNaut miles runAvg speedWind from/ knotsBaromVisibWave heightAir tempDewpointWater temp
2018-Jun-08 01:05N 14°33' W 061°35'117.4
2018-Jun-08 01:01N 14°32' W 061°34'3216.9
2018-Jun-07 23:08N 14°14' W 061°07'216.0
2018-Jun-07 23:00N 14°13' W 061°05'816.7
2018-Jun-07 22:30N 14°09' W 060°57'14 0.6
2018-Jun-06 21:40N 14°04' W 060°43'313.8
2018-Jun-06 21:26N 14°06' W 060°46'613.8
2018-Jun-06 21:00N 14°10' W 060°50'713.5
2018-Jun-06 20:30N 14°15' W 060°55'713.6
2018-Jun-06 20:00N 14°20' W 060°60'714.1
2018-Jun-06 19:30N 14°25' W 061°05'713.2
2018-Jun-06 18:58N 14°32' W 061°07'510.1
2018-Jun-06 18:31N 14°35' W 061°04'1 1.2
2018-Jun-06 17:58N 14°35' W 061°03'0 0.0
2018-Jun-06 17:28N 14°35' W 061°03'0 0.0
2018-Jun-06 16:58N 14°35' W 061°03'0 0.0
2018-Jun-06 16:28N 14°35' W 061°03'0 0.0
2018-Jun-06 15:58N 14°35' W 061°03'0 0.0
2018-Jun-06 15:28N 14°35' W 061°03'0 0.0
2018-Jun-06 14:58N 14°35' W 061°03'0 0.0
2018-Jun-06 14:28N 14°35' W 061°03'0 0.0
2018-Jun-06 13:55N 14°35' W 061°03'0 0.0
2018-Jun-06 13:28N 14°35' W 061°03'0 0.0
2018-Jun-06 12:58N 14°35' W 061°03'0 0.0
2018-Jun-06 12:28N 14°35' W 061°03'0 0.0
2018-Jun-06 11:58N 14°35' W 061°03'0 0.0
2018-Jun-06 11:28N 14°35' W 061°03'0 0.0
2018-Jun-06 10:58N 14°35' W 061°03'0 0.6
2018-Jun-06 10:30N 14°35' W 061°03'3 5.2
2018-Jun-06 10:00N 14°35' W 061°06'2 1.8
2018-Jun-06 08:55N 14°34' W 061°07'0 0.6
2018-Jun-06 08:30N 14°34' W 061°07'3 5.0
2018-Jun-06 07:59N 14°31' W 061°07'3 6.6
2018-Jun-06 07:30N 14°28' W 061°07'4 7.1
2018-Jun-06 07:00N 14°25' W 061°06'4 7.2
2018-Jun-06 06:30N 14°21' W 061°05'3 6.9
2018-Jun-06 06:00N 14°18' W 061°05'3 6.8
2018-Jun-06 05:30N 14°14' W 061°04'3 6.8
2018-Jun-06 05:01N 14°11' W 061°03'3 6.8
2018-Jun-06 04:30N 14°08' W 061°02'3 6.6
2018-Jun-06 04:00N 14°05' W 061°01'4 5.5
2018-Jun-06 03:13N 14°01' W 060°60'0 0.0
2018-Jun-05 10:44N 14°01' W 060°60'  

Dump ship's entire track history